sensor_id;sensor_type;location;lat;lon;timestamp;pressure;altitude;pressure_sealevel;temperature;humidity
36502;BME280;25393;46.108;3.390;2023-04-06T00:00:52;98261.22;;;4.74;61.80
36502;BME280;25393;46.108;3.390;2023-04-06T00:03:19;98263.75;;;4.65;61.89
36502;BME280;25393;46.108;3.390;2023-04-06T00:05:47;98248.88;;;4.54;62.49
36502;BME280;25393;46.108;3.390;2023-04-06T00:08:13;98252.25;;;4.45;63.27
36502;BME280;25393;46.108;3.390;2023-04-06T00:10:40;98247.97;;;4.44;63.35
36502;BME280;25393;46.108;3.390;2023-04-06T00:13:06;98260.16;;;4.66;62.82
36502;BME280;25393;46.108;3.390;2023-04-06T00:15:34;98255.16;;;4.63;63.17
36502;BME280;25393;46.108;3.390;2023-04-06T00:18:00;98251.13;;;4.59;63.08
36502;BME280;25393;46.108;3.390;2023-04-06T00:20:27;98245.19;;;4.57;62.70
36502;BME280;25393;46.108;3.390;2023-04-06T00:22:54;98240.41;;;4.50;62.62
36502;BME280;25393;46.108;3.390;2023-04-06T00:25:21;98214.69;;;4.44;62.14
36502;BME280;25393;46.108;3.390;2023-04-06T00:27:50;98236.41;;;4.67;62.38
36502;BME280;25393;46.108;3.390;2023-04-06T00:30:16;98242.50;;;4.88;60.66
36502;BME280;25393;46.108;3.390;2023-04-06T00:32:43;98223.09;;;4.80;60.41
36502;BME280;25393;46.108;3.390;2023-04-06T00:35:10;98212.25;;;4.73;60.88
36502;BME280;25393;46.108;3.390;2023-04-06T00:37:37;98231.75;;;4.71;61.21
36502;BME280;25393;46.108;3.390;2023-04-06T00:40:04;98221.16;;;4.61;61.93
36502;BME280;25393;46.108;3.390;2023-04-06T00:42:31;98229.22;;;4.48;62.36
36502;BME280;25393;46.108;3.390;2023-04-06T00:44:59;98231.88;;;4.37;63.14
36502;BME280;25393;46.108;3.390;2023-04-06T00:47:26;98234.16;;;4.42;63.86
36502;BME280;25393;46.108;3.390;2023-04-06T00:49:56;98232.47;;;4.41;63.46
36502;BME280;25393;46.108;3.390;2023-04-06T00:52:23;98221.13;;;4.40;63.49
36502;BME280;25393;46.108;3.390;2023-04-06T00:54:51;98221.47;;;4.47;63.42
36502;BME280;25393;46.108;3.390;2023-04-06T00:57:18;98219.81;;;4.46;63.61
36502;BME280;25393;46.108;3.390;2023-04-06T00:59:45;98210.72;;;4.50;63.22
36502;BME280;25393;46.108;3.390;2023-04-06T01:02:12;98222.00;;;4.62;62.05
36502;BME280;25393;46.108;3.390;2023-04-06T01:04:39;98197.47;;;4.51;62.17
36502;BME280;25393;46.108;3.390;2023-04-06T01:07:05;98214.44;;;4.68;61.10
36502;BME280;25393;46.108;3.390;2023-04-06T01:09:32;98214.25;;;4.60;62.22
36502;BME280;25393;46.108;3.390;2023-04-06T01:11:59;98210.28;;;4.66;63.33
36502;BME280;25393;46.108;3.390;2023-04-06T01:14:26;98191.59;;;4.59;63.87
36502;BME280;25393;46.108;3.390;2023-04-06T01:16:52;98193.09;;;4.62;64.00
36502;BME280;25393;46.108;3.390;2023-04-06T01:19:19;98201.88;;;4.72;63.41
36502;BME280;25393;46.108;3.390;2023-04-06T01:21:47;98201.75;;;4.73;63.22
36502;BME280;25393;46.108;3.390;2023-04-06T01:24:16;98196.50;;;4.73;63.13
36502;BME280;25393;46.108;3.390;2023-04-06T01:26:43;98190.63;;;4.60;63.78
36502;BME280;25393;46.108;3.390;2023-04-06T01:29:09;98191.84;;;4.56;64.18
36502;BME280;25393;46.108;3.390;2023-04-06T01:31:36;98191.69;;;4.58;64.36
36502;BME280;25393;46.108;3.390;2023-04-06T01:34:03;98181.91;;;4.60;63.93
36502;BME280;25393;46.108;3.390;2023-04-06T01:36:30;98179.41;;;4.79;62.76
36502;BME280;25393;46.108;3.390;2023-04-06T01:38:57;98179.72;;;4.85;62.12
36502;BME280;25393;46.108;3.390;2023-04-06T01:41:24;98168.84;;;4.69;62.99
36502;BME280;25393;46.108;3.390;2023-04-06T01:43:53;98180.63;;;4.75;63.02
36502;BME280;25393;46.108;3.390;2023-04-06T01:46:25;98186.88;;;4.83;61.05
36502;BME280;25393;46.108;3.390;2023-04-06T01:48:54;98179.81;;;4.74;61.06
36502;BME280;25393;46.108;3.390;2023-04-06T01:51:23;98186.63;;;4.86;61.75
36502;BME280;25393;46.108;3.390;2023-04-06T01:53:53;98181.28;;;4.67;62.13
36502;BME280;25393;46.108;3.390;2023-04-06T01:56:19;98189.84;;;4.48;63.13
36502;BME280;25393;46.108;3.390;2023-04-06T01:58:46;98175.25;;;4.35;64.08
36502;BME280;25393;46.108;3.390;2023-04-06T02:01:13;98191.78;;;4.46;64.79
36502;BME280;25393;46.108;3.390;2023-04-06T02:03:39;98183.19;;;4.44;65.16
36502;BME280;25393;46.108;3.390;2023-04-06T02:06:06;98194.97;;;4.50;65.10
36502;BME280;25393;46.108;3.390;2023-04-06T02:08:32;98191.38;;;4.51;65.40
36502;BME280;25393;46.108;3.390;2023-04-06T02:10:59;98183.31;;;4.64;64.38
36502;BME280;25393;46.108;3.390;2023-04-06T02:13:26;98189.09;;;4.78;62.69
36502;BME280;25393;46.108;3.390;2023-04-06T02:15:53;98185.94;;;4.84;61.96
36502;BME280;25393;46.108;3.390;2023-04-06T02:18:19;98176.91;;;4.77;61.95
36502;BME280;25393;46.108;3.390;2023-04-06T02:20:46;98181.84;;;4.91;60.84
36502;BME280;25393;46.108;3.390;2023-04-06T02:23:13;98177.78;;;4.87;60.99
36502;BME280;25393;46.108;3.390;2023-04-06T02:25:39;98169.81;;;4.89;60.79
36502;BME280;25393;46.108;3.390;2023-04-06T02:28:07;98173.56;;;4.96;61.30
36502;BME280;25393;46.108;3.390;2023-04-06T02:30:33;98166.97;;;5.11;59.55
36502;BME280;25393;46.108;3.390;2023-04-06T02:33:01;98177.53;;;4.90;59.85
36502;BME280;25393;46.108;3.390;2023-04-06T02:35:31;98164.78;;;4.86;60.02
36502;BME280;25393;46.108;3.390;2023-04-06T02:37:58;98165.94;;;4.72;61.49
36502;BME280;25393;46.108;3.390;2023-04-06T02:40:25;98179.47;;;4.47;62.44
36502;BME280;25393;46.108;3.390;2023-04-06T02:42:52;98181.81;;;4.29;63.40
36502;BME280;25393;46.108;3.390;2023-04-06T02:45:18;98167.22;;;4.36;62.88
36502;BME280;25393;46.108;3.390;2023-04-06T02:47:45;98179.34;;;4.48;62.53
36502;BME280;25393;46.108;3.390;2023-04-06T02:50:12;98176.06;;;4.35;62.45
36502;BME280;25393;46.108;3.390;2023-04-06T02:52:38;98171.84;;;4.44;62.17
36502;BME280;25393;46.108;3.390;2023-04-06T02:55:05;98169.94;;;4.46;61.24
36502;BME280;25393;46.108;3.390;2023-04-06T02:57:33;98175.44;;;4.64;61.71
36502;BME280;25393;46.108;3.390;2023-04-06T03:00:03;98161.09;;;4.47;61.80
36502;BME280;25393;46.108;3.390;2023-04-06T03:02:33;98168.59;;;4.51;62.52
36502;BME280;25393;46.108;3.390;2023-04-06T03:05:03;98151.50;;;4.57;61.91
36502;BME280;25393;46.108;3.390;2023-04-06T03:07:33;98164.50;;;4.59;62.17
36502;BME280;25393;46.108;3.390;2023-04-06T03:10:01;98144.34;;;4.38;62.51
36502;BME280;25393;46.108;3.390;2023-04-06T03:12:28;98157.06;;;4.43;62.46
36502;BME280;25393;46.108;3.390;2023-04-06T03:14:54;98156.41;;;4.50;62.44
36502;BME280;25393;46.108;3.390;2023-04-06T03:17:21;98160.28;;;4.46;62.81
36502;BME280;25393;46.108;3.390;2023-04-06T03:19:47;98166.41;;;4.57;62.45
36502;BME280;25393;46.108;3.390;2023-04-06T03:22:14;98155.09;;;4.56;62.87
36502;BME280;25393;46.108;3.390;2023-04-06T03:24:41;98148.41;;;4.52;63.19
36502;BME280;25393;46.108;3.390;2023-04-06T03:27:07;98154.78;;;4.49;63.45
36502;BME280;25393;46.108;3.390;2023-04-06T03:29:34;98155.34;;;4.32;64.16
36502;BME280;25393;46.108;3.390;2023-04-06T03:32:00;98158.28;;;4.39;64.53
36502;BME280;25393;46.108;3.390;2023-04-06T03:34:29;98160.81;;;4.29;65.45
36502;BME280;25393;46.108;3.390;2023-04-06T03:36:55;98151.75;;;4.33;66.07
36502;BME280;25393;46.108;3.390;2023-04-06T03:39:35;98150.69;;;4.36;65.30
36502;BME280;25393;46.108;3.390;2023-04-06T03:42:07;98163.91;;;4.34;65.45
36502;BME280;25393;46.108;3.390;2023-04-06T03:44:36;98167.44;;;4.44;64.31
36502;BME280;25393;46.108;3.390;2023-04-06T03:47:06;98159.75;;;4.52;63.36
36502;BME280;25393;46.108;3.390;2023-04-06T03:49:36;98150.59;;;4.68;62.84
36502;BME280;25393;46.108;3.390;2023-04-06T03:52:05;98154.38;;;4.75;62.98
36502;BME280;25393;46.108;3.390;2023-04-06T03:54:32;98162.06;;;4.97;62.80
36502;BME280;25393;46.108;3.390;2023-04-06T03:57:05;98163.25;;;4.83;63.58
36502;BME280;25393;46.108;3.390;2023-04-06T03:59:32;98150.78;;;4.76;63.51
36502;BME280;25393;46.108;3.390;2023-04-06T04:02:01;98157.75;;;4.66;63.86
36502;BME280;25393;46.108;3.390;2023-04-06T04:04:28;98162.13;;;4.56;63.79
36502;BME280;25393;46.108;3.390;2023-04-06T04:06:54;98163.38;;;4.61;62.75
36502;BME280;25393;46.108;3.390;2023-04-06T04:09:21;98163.47;;;4.71;62.81
36502;BME280;25393;46.108;3.390;2023-04-06T04:11:48;98171.41;;;4.80;62.58
36502;BME280;25393;46.108;3.390;2023-04-06T04:14:14;98148.66;;;4.70;62.58
36502;BME280;25393;46.108;3.390;2023-04-06T04:16:40;98163.41;;;4.82;62.43
36502;BME280;25393;46.108;3.390;2023-04-06T04:19:08;98171.72;;;4.87;62.21
36502;BME280;25393;46.108;3.390;2023-04-06T04:21:45;98171.84;;;4.85;61.68
36502;BME280;25393;46.108;3.390;2023-04-06T04:24:12;98169.34;;;4.84;61.67
36502;BME280;25393;46.108;3.390;2023-04-06T04:26:39;98174.59;;;4.84;62.05
36502;BME280;25393;46.108;3.390;2023-04-06T04:29:06;98167.41;;;4.86;61.51
36502;BME280;25393;46.108;3.390;2023-04-06T04:31:33;98178.81;;;4.96;60.92
36502;BME280;25393;46.108;3.390;2023-04-06T04:34:02;98172.47;;;4.98;60.26
36502;BME280;25393;46.108;3.390;2023-04-06T04:36:28;98172.78;;;5.05;60.55
36502;BME280;25393;46.108;3.390;2023-04-06T04:38:55;98170.22;;;4.94;60.98
36502;BME280;25393;46.108;3.390;2023-04-06T04:41:22;98187.50;;;4.96;60.89
36502;BME280;25393;46.108;3.390;2023-04-06T04:43:49;98176.31;;;4.94;61.58
36502;BME280;25393;46.108;3.390;2023-04-06T04:46:15;98187.41;;;4.98;61.39
36502;BME280;25393;46.108;3.390;2023-04-06T04:48:42;98170.28;;;4.83;61.75
36502;BME280;25393;46.108;3.390;2023-04-06T04:51:08;98186.47;;;4.78;62.36
36502;BME280;25393;46.108;3.390;2023-04-06T04:53:35;98189.66;;;4.82;62.16
36502;BME280;25393;46.108;3.390;2023-04-06T04:56:04;98191.63;;;4.89;61.92
36502;BME280;25393;46.108;3.390;2023-04-06T04:58:33;98178.75;;;4.86;62.12
36502;BME280;25393;46.108;3.390;2023-04-06T05:00:59;98204.38;;;4.94;62.18
36502;BME280;25393;46.108;3.390;2023-04-06T05:03:26;98200.22;;;4.91;62.61
36502;BME280;25393;46.108;3.390;2023-04-06T05:05:53;98190.81;;;4.89;62.63
36502;BME280;25393;46.108;3.390;2023-04-06T05:08:20;98193.44;;;4.89;63.25
36502;BME280;25393;46.108;3.390;2023-04-06T05:10:47;98188.19;;;4.89;62.89
36502;BME280;25393;46.108;3.390;2023-04-06T05:13:14;98193.44;;;4.89;63.67
36502;BME280;25393;46.108;3.390;2023-04-06T05:15:41;98193.28;;;4.90;63.27
36502;BME280;25393;46.108;3.390;2023-04-06T05:18:08;98203.63;;;5.03;63.15
36502;BME280;25393;46.108;3.390;2023-04-06T05:20:35;98190.59;;;5.01;63.39
36502;BME280;25393;46.108;3.390;2023-04-06T05:23:04;98197.25;;;5.06;62.96
36502;BME280;25393;46.108;3.390;2023-04-06T05:25:32;98202.84;;;4.91;63.54
36502;BME280;25393;46.108;3.390;2023-04-06T05:27:59;98200.66;;;4.76;64.51
36502;BME280;25393;46.108;3.390;2023-04-06T05:30:26;98202.28;;;4.67;64.72
36502;BME280;25393;46.108;3.390;2023-04-06T05:32:52;98198.81;;;4.67;64.55
36502;BME280;25393;46.108;3.390;2023-04-06T05:35:19;98215.91;;;4.61;65.57
36502;BME280;25393;46.108;3.390;2023-04-06T05:37:46;98221.94;;;4.52;65.47
36502;BME280;25393;46.108;3.390;2023-04-06T05:40:12;98216.94;;;4.49;65.85
36502;BME280;25393;46.108;3.390;2023-04-06T05:42:40;98223.66;;;4.63;65.56
36502;BME280;25393;46.108;3.390;2023-04-06T05:45:09;98220.13;;;4.52;65.43
36502;BME280;25393;46.108;3.390;2023-04-06T05:47:40;98217.19;;;4.67;65.48
36502;BME280;25393;46.108;3.390;2023-04-06T05:50:11;98203.22;;;4.45;65.52
36502;BME280;25393;46.108;3.390;2023-04-06T05:52:38;98220.28;;;4.40;66.11
36502;BME280;25393;46.108;3.390;2023-04-06T05:55:10;98229.34;;;4.47;66.83
36502;BME280;25393;46.108;3.390;2023-04-06T05:57:37;98227.53;;;4.47;66.47
36502;BME280;25393;46.108;3.390;2023-04-06T06:00:05;98233.97;;;4.54;66.78
36502;BME280;25393;46.108;3.390;2023-04-06T06:02:35;98239.22;;;4.54;66.40
36502;BME280;25393;46.108;3.390;2023-04-06T06:05:05;98244.28;;;4.67;66.54
36502;BME280;25393;46.108;3.390;2023-04-06T06:07:34;98238.84;;;4.59;65.91
36502;BME280;25393;46.108;3.390;2023-04-06T06:10:00;98229.22;;;4.69;66.23
36502;BME280;25393;46.108;3.390;2023-04-06T06:12:27;98220.97;;;4.74;66.39
36502;BME280;25393;46.108;3.390;2023-04-06T06:14:54;98220.84;;;4.96;66.67
36502;BME280;25393;46.108;3.390;2023-04-06T06:17:21;98232.91;;;4.98;67.00
36502;BME280;25393;46.108;3.390;2023-04-06T06:19:48;98223.97;;;4.90;65.64
36502;BME280;25393;46.108;3.390;2023-04-06T06:22:15;98226.44;;;4.82;66.61
36502;BME280;25393;46.108;3.390;2023-04-06T06:24:41;98221.09;;;4.93;65.47
36502;BME280;25393;46.108;3.390;2023-04-06T06:27:08;98221.75;;;4.85;66.41
36502;BME280;25393;46.108;3.390;2023-04-06T06:29:34;98240.56;;;4.70;67.57
36502;BME280;25393;46.108;3.390;2023-04-06T06:32:01;98247.75;;;4.68;68.68
36502;BME280;25393;46.108;3.390;2023-04-06T06:34:28;98232.97;;;4.67;68.68
36502;BME280;25393;46.108;3.390;2023-04-06T06:36:54;98239.25;;;4.43;68.67
36502;BME280;25393;46.108;3.390;2023-04-06T06:39:21;98236.59;;;4.23;69.73
36502;BME280;25393;46.108;3.390;2023-04-06T06:41:48;98260.78;;;4.26;70.51
36502;BME280;25393;46.108;3.390;2023-04-06T06:44:14;98258.72;;;4.41;69.45
36502;BME280;25393;46.108;3.390;2023-04-06T06:46:41;98232.06;;;4.57;69.22
36502;BME280;25393;46.108;3.390;2023-04-06T06:49:09;98243.66;;;4.75;69.58
36502;BME280;25393;46.108;3.390;2023-04-06T06:51:40;98233.53;;;4.70;68.72
36502;BME280;25393;46.108;3.390;2023-04-06T06:54:10;98251.59;;;4.84;68.96
36502;BME280;25393;46.108;3.390;2023-04-06T06:56:38;98236.72;;;4.94;69.50
36502;BME280;25393;46.108;3.390;2023-04-06T06:59:05;98251.19;;;5.30;68.76
36502;BME280;25393;46.108;3.390;2023-04-06T07:01:38;98252.41;;;5.57;67.78
36502;BME280;25393;46.108;3.390;2023-04-06T07:04:04;98255.94;;;5.76;66.84
36502;BME280;25393;46.108;3.390;2023-04-06T07:06:37;98249.00;;;5.75;64.83
36502;BME280;25393;46.108;3.390;2023-04-06T07:09:05;98263.78;;;5.97;64.92
36502;BME280;25393;46.108;3.390;2023-04-06T07:11:32;98242.59;;;5.98;63.21
36502;BME280;25393;46.108;3.390;2023-04-06T07:13:59;98249.13;;;6.04;63.43
36502;BME280;25393;46.108;3.390;2023-04-06T07:16:25;98246.78;;;6.30;62.91
36502;BME280;25393;46.108;3.390;2023-04-06T07:18:52;98243.91;;;6.71;63.13
36502;BME280;25393;46.108;3.390;2023-04-06T07:21:19;98250.44;;;7.33;60.97
36502;BME280;25393;46.108;3.390;2023-04-06T07:23:46;98256.22;;;7.83;58.88
36502;BME280;25393;46.108;3.390;2023-04-06T07:26:14;98245.34;;;8.13;57.42
36502;BME280;25393;46.108;3.390;2023-04-06T07:28:41;98224.44;;;8.65;55.83
36502;BME280;25393;46.108;3.390;2023-04-06T07:31:09;98246.34;;;9.44;54.49
36502;BME280;25393;46.108;3.390;2023-04-06T07:33:36;98234.47;;;9.90;52.40
36502;BME280;25393;46.108;3.390;2023-04-06T07:36:05;98228.03;;;9.92;51.94
36502;BME280;25393;46.108;3.390;2023-04-06T07:38:32;98241.25;;;9.84;50.54
36502;BME280;25393;46.108;3.390;2023-04-06T07:40:59;98247.47;;;9.75;51.50
36502;BME280;25393;46.108;3.390;2023-04-06T07:43:26;98242.59;;;9.54;51.86
36502;BME280;25393;46.108;3.390;2023-04-06T07:45:53;98253.41;;;9.35;52.03
36502;BME280;25393;46.108;3.390;2023-04-06T07:48:21;98246.94;;;9.12;52.34
36502;BME280;25393;46.108;3.390;2023-04-06T07:50:47;98243.66;;;9.10;51.86
36502;BME280;25393;46.108;3.390;2023-04-06T07:53:14;98253.66;;;9.24;52.06
36502;BME280;25393;46.108;3.390;2023-04-06T07:55:41;98243.00;;;9.16;52.42
36502;BME280;25393;46.108;3.390;2023-04-06T07:58:09;98251.16;;;9.23;52.74
36502;BME280;25393;46.108;3.390;2023-04-06T08:00:37;98247.63;;;9.40;51.15
36502;BME280;25393;46.108;3.390;2023-04-06T08:03:11;98261.38;;;9.43;51.71
36502;BME280;25393;46.108;3.390;2023-04-06T08:05:41;98261.34;;;9.35;52.48
36502;BME280;25393;46.108;3.390;2023-04-06T08:08:09;98251.78;;;9.42;52.49
36502;BME280;25393;46.108;3.390;2023-04-06T08:10:36;98239.28;;;9.52;51.75
36502;BME280;25393;46.108;3.390;2023-04-06T08:13:03;98259.75;;;9.76;51.52
36502;BME280;25393;46.108;3.390;2023-04-06T08:15:29;98255.97;;;9.87;51.00
36502;BME280;25393;46.108;3.390;2023-04-06T08:17:56;98269.28;;;10.03;51.29
36502;BME280;25393;46.108;3.390;2023-04-06T08:20:23;98255.94;;;10.13;51.08
36502;BME280;25393;46.108;3.390;2023-04-06T08:22:50;98254.97;;;10.22;50.35
36502;BME280;25393;46.108;3.390;2023-04-06T08:25:19;98238.81;;;10.49;50.36
36502;BME280;25393;46.108;3.390;2023-04-06T08:27:45;98233.72;;;10.80;49.08
36502;BME280;25393;46.108;3.390;2023-04-06T08:30:12;98233.03;;;11.18;47.62
36502;BME280;25393;46.108;3.390;2023-04-06T08:32:41;98250.88;;;11.48;46.82
36502;BME280;25393;46.108;3.390;2023-04-06T08:35:11;98249.19;;;11.64;46.03
36502;BME280;25393;46.108;3.390;2023-04-06T08:37:38;98240.22;;;11.73;46.93
36502;BME280;25393;46.108;3.390;2023-04-06T08:40:11;98240.91;;;11.59;46.62
36502;BME280;25393;46.108;3.390;2023-04-06T08:42:44;98253.00;;;11.61;47.96
36502;BME280;25393;46.108;3.390;2023-04-06T08:45:16;98233.56;;;11.85;46.48
36502;BME280;25393;46.108;3.390;2023-04-06T08:47:44;98246.78;;;11.93;46.31
36502;BME280;25393;46.108;3.390;2023-04-06T08:50:12;98209.31;;;11.88;47.65
36502;BME280;25393;46.108;3.390;2023-04-06T08:52:43;98252.97;;;12.24;45.51
36502;BME280;25393;46.108;3.390;2023-04-06T08:55:10;98247.19;;;12.21;44.40
36502;BME280;25393;46.108;3.390;2023-04-06T08:57:37;98239.94;;;12.37;44.92
36502;BME280;25393;46.108;3.390;2023-04-06T09:00:09;98252.69;;;12.42;45.26
36502;BME280;25393;46.108;3.390;2023-04-06T09:02:42;98253.88;;;12.39;45.16
36502;BME280;25393;46.108;3.390;2023-04-06T09:05:10;98230.91;;;12.46;45.48
36502;BME280;25393;46.108;3.390;2023-04-06T09:07:38;98230.97;;;12.61;45.32
36502;BME280;25393;46.108;3.390;2023-04-06T09:10:06;98231.97;;;12.60;43.22
36502;BME280;25393;46.108;3.390;2023-04-06T09:12:34;98220.41;;;12.76;43.80
36502;BME280;25393;46.108;3.390;2023-04-06T09:15:01;98209.09;;;12.74;42.14
36502;BME280;25393;46.108;3.390;2023-04-06T09:17:30;98197.28;;;12.53;43.61
36502;BME280;25393;46.108;3.390;2023-04-06T09:20:02;98214.66;;;12.64;45.38
36502;BME280;25393;46.108;3.390;2023-04-06T09:22:36;98205.56;;;12.59;45.61
36502;BME280;25393;46.108;3.390;2023-04-06T09:25:06;98190.19;;;12.46;45.76
36502;BME280;25393;46.108;3.390;2023-04-06T09:27:37;98200.00;;;12.45;46.43
36502;BME280;25393;46.108;3.390;2023-04-06T09:30:12;98207.44;;;12.50;47.50
36502;BME280;25393;46.108;3.390;2023-04-06T09:32:55;98213.28;;;12.45;45.08
36502;BME280;25393;46.108;3.390;2023-04-06T09:35:23;98211.88;;;12.58;43.58
36502;BME280;25393;46.108;3.390;2023-04-06T09:37:51;98209.03;;;12.82;43.17
36502;BME280;25393;46.108;3.390;2023-04-06T09:40:18;98207.16;;;12.90;43.16
36502;BME280;25393;46.108;3.390;2023-04-06T09:42:47;98188.59;;;12.82;42.49
36502;BME280;25393;46.108;3.390;2023-04-06T09:45:14;98198.72;;;13.83;42.13
36502;BME280;25393;46.108;3.390;2023-04-06T09:47:44;98190.19;;;14.80;39.79
36502;BME280;25393;46.108;3.390;2023-04-06T09:50:13;98190.97;;;15.92;37.48
36502;BME280;25393;46.108;3.390;2023-04-06T09:52:47;98191.44;;;16.63;36.32
36502;BME280;25393;46.108;3.390;2023-04-06T09:55:40;98183.63;;;17.14;35.45
36502;BME280;25393;46.108;3.390;2023-04-06T09:58:09;98178.88;;;18.13;34.06
36502;BME280;25393;46.108;3.390;2023-04-06T10:00:53;98169.00;;;18.58;33.06
36502;BME280;25393;46.108;3.390;2023-04-06T10:06:05;98188.00;;;18.50;31.96
36502;BME280;25393;46.108;3.390;2023-04-06T10:08:42;98178.56;;;18.78;32.14
36502;BME280;25393;46.108;3.390;2023-04-06T10:11:12;98179.31;;;19.96;31.68
36502;BME280;25393;46.108;3.390;2023-04-06T10:13:42;98182.50;;;21.12;31.02
36502;BME280;25393;46.108;3.390;2023-04-06T10:16:12;98178.25;;;20.63;33.01
36502;BME280;25393;46.108;3.390;2023-04-06T10:18:44;98196.50;;;19.95;32.54
36502;BME280;25393;46.108;3.390;2023-04-06T10:21:16;98196.81;;;19.87;30.34
36502;BME280;25393;46.108;3.390;2023-04-06T10:24:01;98207.22;;;18.84;32.07
36502;BME280;25393;46.108;3.390;2023-04-06T10:26:28;98198.81;;;18.74;32.89
36502;BME280;25393;46.108;3.390;2023-04-06T10:29:01;98192.13;;;18.83;33.35
36502;BME280;25393;46.108;3.390;2023-04-06T10:31:28;98178.09;;;18.50;30.26
36502;BME280;25393;46.108;3.390;2023-04-06T10:34:02;98191.88;;;18.16;30.40
36502;BME280;25393;46.108;3.390;2023-04-06T10:36:32;98198.97;;;18.41;30.34
36502;BME280;25393;46.108;3.390;2023-04-06T10:39:02;98192.09;;;18.14;31.28
36502;BME280;25393;46.108;3.390;2023-04-06T10:41:55;98203.53;;;18.79;31.24
36502;BME280;25393;46.108;3.390;2023-04-06T10:44:42;98202.25;;;19.37;31.50
36502;BME280;25393;46.108;3.390;2023-04-06T10:47:18;98186.53;;;19.41;28.88
36502;BME280;25393;46.108;3.390;2023-04-06T10:49:45;98201.44;;;19.98;30.08
36502;BME280;25393;46.108;3.390;2023-04-06T10:52:12;98174.78;;;20.74;28.74
36502;BME280;25393;46.108;3.390;2023-04-06T10:54:42;98194.94;;;21.71;26.98
36502;BME280;25393;46.108;3.390;2023-04-06T10:57:10;98188.63;;;22.29;26.80
36502;BME280;25393;46.108;3.390;2023-04-06T10:59:44;98172.00;;;22.77;26.69
36502;BME280;25393;46.108;3.390;2023-04-06T11:02:19;98178.66;;;22.86;25.79
36502;BME280;25393;46.108;3.390;2023-04-06T11:04:55;98178.41;;;22.59;25.38
36502;BME280;25393;46.108;3.390;2023-04-06T11:07:23;98165.50;;;21.93;25.19
36502;BME280;25393;46.108;3.390;2023-04-06T11:09:51;98188.38;;;21.21;26.01
36502;BME280;25393;46.108;3.390;2023-04-06T11:12:42;98187.31;;;20.69;27.05
36502;BME280;25393;46.108;3.390;2023-04-06T11:15:12;98177.25;;;20.46;26.87
36502;BME280;25393;46.108;3.390;2023-04-06T11:17:42;98193.34;;;19.62;27.89
36502;BME280;25393;46.108;3.390;2023-04-06T11:20:10;98196.31;;;19.54;28.14
36502;BME280;25393;46.108;3.390;2023-04-06T11:22:48;98160.47;;;19.41;27.78
36502;BME280;25393;46.108;3.390;2023-04-06T11:25:15;98183.94;;;19.89;27.84
36502;BME280;25393;46.108;3.390;2023-04-06T11:27:45;98174.97;;;20.13;27.03
36502;BME280;25393;46.108;3.390;2023-04-06T11:30:14;98177.13;;;20.41;27.28
36502;BME280;25393;46.108;3.390;2023-04-06T11:32:45;98186.78;;;20.30;28.31
36502;BME280;25393;46.108;3.390;2023-04-06T11:37:45;98162.94;;;19.18;27.32
36502;BME280;25393;46.108;3.390;2023-04-06T11:40:12;98171.38;;;18.97;28.37
36502;BME280;25393;46.108;3.390;2023-04-06T11:42:39;98178.28;;;18.55;29.41
36502;BME280;25393;46.108;3.390;2023-04-06T11:45:07;98177.25;;;18.56;27.65
36502;BME280;25393;46.108;3.390;2023-04-06T11:47:37;98178.50;;;18.09;29.60
36502;BME280;25393;46.108;3.390;2023-04-06T11:50:12;98177.44;;;17.39;29.90
36502;BME280;25393;46.108;3.390;2023-04-06T11:52:40;98172.06;;;17.59;30.36
36502;BME280;25393;46.108;3.390;2023-04-06T11:55:17;98173.66;;;17.86;31.21
36502;BME280;25393;46.108;3.390;2023-04-06T11:57:44;98158.16;;;17.88;29.48
36502;BME280;25393;46.108;3.390;2023-04-06T12:00:14;98170.72;;;18.01;30.84
36502;BME280;25393;46.108;3.390;2023-04-06T12:02:47;98158.63;;;17.72;31.56
36502;BME280;25393;46.108;3.390;2023-04-06T12:05:14;98147.75;;;17.61;30.73
36502;BME280;25393;46.108;3.390;2023-04-06T12:07:41;98169.19;;;17.61;32.17
36502;BME280;25393;46.108;3.390;2023-04-06T12:10:12;98171.00;;;17.67;30.83
36502;BME280;25393;46.108;3.390;2023-04-06T12:12:40;98163.22;;;17.59;32.67
36502;BME280;25393;46.108;3.390;2023-04-06T12:15:17;98170.00;;;17.48;31.37
36502;BME280;25393;46.108;3.390;2023-04-06T12:17:44;98161.75;;;17.49;32.44
36502;BME280;25393;46.108;3.390;2023-04-06T12:20:11;98168.31;;;17.67;35.85
36502;BME280;25393;46.108;3.390;2023-04-06T12:22:50;98172.06;;;17.66;32.67
36502;BME280;25393;46.108;3.390;2023-04-06T12:25:17;98163.75;;;17.80;33.92
36502;BME280;25393;46.108;3.390;2023-04-06T12:27:44;98170.50;;;17.96;32.99
36502;BME280;25393;46.108;3.390;2023-04-06T12:30:12;98165.75;;;17.98;32.98
36502;BME280;25393;46.108;3.390;2023-04-06T12:32:39;98158.88;;;18.09;32.92
36502;BME280;25393;46.108;3.390;2023-04-06T12:35:06;98142.78;;;18.15;30.28
36502;BME280;25393;46.108;3.390;2023-04-06T12:37:35;98142.41;;;18.12;32.82
36502;BME280;25393;46.108;3.390;2023-04-06T12:40:01;98159.25;;;18.25;32.29
36502;BME280;25393;46.108;3.390;2023-04-06T12:42:29;98149.44;;;18.51;31.97
36502;BME280;25393;46.108;3.390;2023-04-06T12:44:56;98160.94;;;18.58;30.22
36502;BME280;25393;46.108;3.390;2023-04-06T12:47:25;98146.66;;;18.64;31.60
36502;BME280;25393;46.108;3.390;2023-04-06T12:49:52;98159.31;;;18.81;32.93
36502;BME280;25393;46.108;3.390;2023-04-06T12:52:20;98149.81;;;19.04;32.77
36502;BME280;25393;46.108;3.390;2023-04-06T12:54:47;98138.78;;;19.36;32.66
36502;BME280;25393;46.108;3.390;2023-04-06T12:57:16;98133.09;;;19.51;32.58
36502;BME280;25393;46.108;3.390;2023-04-06T12:59:43;98136.00;;;19.68;32.72
36502;BME280;25393;46.108;3.390;2023-04-06T13:02:11;98135.03;;;19.80;31.25
36502;BME280;25393;46.108;3.390;2023-04-06T13:04:41;98137.94;;;19.79;31.09
36502;BME280;25393;46.108;3.390;2023-04-06T13:07:09;98130.41;;;19.87;30.59
36502;BME280;25393;46.108;3.390;2023-04-06T13:09:35;98134.25;;;19.91;29.29
36502;BME280;25393;46.108;3.390;2023-04-06T13:12:02;98130.13;;;19.59;29.56
36502;BME280;25393;46.108;3.390;2023-04-06T13:14:29;98120.97;;;19.78;29.05
36502;BME280;25393;46.108;3.390;2023-04-06T13:16:55;98120.72;;;20.46;30.72
36502;BME280;25393;46.108;3.390;2023-04-06T13:19:22;98113.75;;;21.21;31.25